createdAt,value
2023-04-01T00:00:01.791Z,2.50
2023-04-01T00:03:14.240Z,1.70
2023-04-01T00:06:18.914Z,1.80
2023-04-01T00:09:21.543Z,1.92
2023-04-01T00:12:26.060Z,3.47
2023-04-01T00:15:28.291Z,2.10
2023-04-01T00:18:31.551Z,3.12
2023-04-01T00:21:34.121Z,2.30
2023-04-01T00:24:36.691Z,2.37
2023-04-01T00:27:38.986Z,3.03
2023-04-01T00:30:41.766Z,3.00
2023-04-01T00:33:44.250Z,2.47
2023-04-01T00:36:46.734Z,2.67
2023-04-01T00:39:49.349Z,2.58
2023-04-01T00:42:52.298Z,2.95
2023-04-01T00:45:54.498Z,3.00
2023-04-01T00:48:57.583Z,2.62
2023-04-01T00:52:02.495Z,3.23
2023-04-01T00:55:08.350Z,2.95
2023-04-01T00:58:16.781Z,2.67
2023-04-01T01:01:23.007Z,2.53
2023-04-01T01:04:31.300Z,2.33
2023-04-01T01:07:42.933Z,2.50
2023-04-01T01:10:50.551Z,3.40
2023-04-01T01:14:44.190Z,2.42
2023-04-01T01:17:46.475Z,3.03
2023-04-01T01:21:07.779Z,2.90
2023-04-01T01:24:43.237Z,2.78
2023-04-01T01:27:55.747Z,2.35
2023-04-01T01:31:17.071Z,2.37
2023-04-01T01:34:53.842Z,2.53
2023-04-01T01:38:00.923Z,3.50
2023-04-01T01:41:06.416Z,2.80
2023-04-01T01:44:12.161Z,3.05
2023-04-01T01:47:16.389Z,2.25
2023-04-01T01:50:20.529Z,2.95
2023-04-01T01:53:23.147Z,2.78
2023-04-01T01:56:29.553Z,2.40
2023-04-01T01:59:34.206Z,2.70
2023-04-01T02:02:36.475Z,2.92
2023-04-01T02:05:40.653Z,2.95
2023-04-01T02:12:00.466Z,2.35
2023-04-01T02:15:13.418Z,2.37
2023-04-01T02:18:17.351Z,2.53
2023-04-01T02:21:23.194Z,3.28
2023-04-01T02:24:29.068Z,2.65
2023-04-01T02:27:31.948Z,2.30
2023-04-01T02:30:37.650Z,2.55
2023-04-01T02:33:40.939Z,2.80
2023-04-01T02:36:43.739Z,2.15
2023-04-01T02:39:46.295Z,2.00
2023-04-01T02:42:48.534Z,1.60
2023-04-01T02:45:51.329Z,1.40
2023-04-01T02:48:54.642Z,1.10
2023-04-01T02:51:57.196Z,1.33
2023-04-01T02:54:59.395Z,0.80
2023-04-01T02:58:02.678Z,1.40
2023-04-01T03:01:05.316Z,1.27
2023-04-01T03:04:07.902Z,1.30
2023-04-01T03:07:11.240Z,1.27
2023-04-01T03:13:15.760Z,1.40
2023-04-01T03:16:19.034Z,0.90
2023-04-01T03:19:21.301Z,1.67
2023-04-01T03:22:24.022Z,1.67
2023-04-01T03:25:26.233Z,1.20
2023-04-01T03:28:28.726Z,1.30
2023-04-01T03:31:31.079Z,1.00
2023-04-01T03:34:33.862Z,1.40
2023-04-01T03:37:36.299Z,1.10
2023-04-01T03:40:42.880Z,1.10
2023-04-01T03:43:45.622Z,0.93
2023-04-01T03:46:48.164Z,1.35
2023-04-01T03:49:50.904Z,1.17
2023-04-01T03:52:53.464Z,1.30
2023-04-01T03:55:56.624Z,1.15
2023-04-01T03:58:59.467Z,1.20
2023-04-01T04:02:01.773Z,0.90
2023-04-01T04:05:04.699Z,1.25
2023-04-01T04:08:09.203Z,1.02
2023-04-01T04:11:11.823Z,1.08
2023-04-01T04:14:14.476Z,1.30
2023-04-01T04:17:17.445Z,1.03
2023-04-01T04:20:19.795Z,1.17
2023-04-01T04:23:22.614Z,1.30
2023-04-01T04:26:24.895Z,1.40
2023-04-01T04:29:27.881Z,1.48
2023-04-01T04:32:31.247Z,1.05
2023-04-01T04:35:34.345Z,1.00
2023-04-01T04:38:37.014Z,1.30
2023-04-01T04:41:39.854Z,1.10
2023-04-01T04:44:42.094Z,1.17
2023-04-01T04:47:44.589Z,1.40
2023-04-01T04:50:51.865Z,1.23
2023-04-01T04:53:54.788Z,1.17
2023-04-01T04:56:58.180Z,0.80
2023-04-01T05:00:01.211Z,1.08
2023-04-01T05:03:04.706Z,1.10
2023-04-01T05:06:10.280Z,1.20
2023-04-01T05:09:12.746Z,1.58
2023-04-01T05:12:15.903Z,1.17
2023-04-01T05:15:20.451Z,1.05
2023-04-01T05:18:23.489Z,1.48
2023-04-01T05:21:25.694Z,0.90
2023-04-01T05:24:28.688Z,1.02
2023-04-01T05:27:31.072Z,1.12
2023-04-01T05:30:33.530Z,1.37
2023-04-01T05:33:36.578Z,1.10
2023-04-01T05:36:40.804Z,1.00
2023-04-01T05:39:43.238Z,1.05
2023-04-01T05:42:45.846Z,0.80
2023-04-01T05:45:49.612Z,1.23
2023-04-01T05:48:55.404Z,0.88
2023-04-01T05:51:59.114Z,1.40
2023-04-01T05:55:01.798Z,1.75
2023-04-01T05:58:04.305Z,0.95
2023-04-01T06:01:14.093Z,0.82
2023-04-01T06:04:19.365Z,1.17
2023-04-01T06:07:21.615Z,1.00
2023-04-01T06:10:40.730Z,0.93
2023-04-01T06:14:19.548Z,1.27
2023-04-01T06:18:03.483Z,1.10
2023-04-01T06:21:21.477Z,0.60
2023-04-01T06:24:31.982Z,0.85
2023-04-01T06:28:03.452Z,1.20
2023-04-01T06:31:50.583Z,0.90
2023-04-01T06:35:12.262Z,0.98
2023-04-01T06:38:29.520Z,0.85
2023-04-01T06:41:51.762Z,0.85
2023-04-01T06:45:07.923Z,0.88
2023-04-01T06:48:46.400Z,0.73
2023-04-01T06:52:03.590Z,0.90
2023-04-01T06:55:29.286Z,0.77
2023-04-01T06:58:42.674Z,0.80
2023-04-01T07:02:19.324Z,0.55
2023-04-01T07:05:23.970Z,1.52
2023-04-01T07:08:30.519Z,0.88
2023-04-01T07:11:38.143Z,0.73
2023-04-01T07:14:44.468Z,0.85
2023-04-01T07:17:53.854Z,0.90
2023-04-01T07:20:56.537Z,1.08
2023-04-01T07:24:05.999Z,0.90
2023-04-01T07:27:14.319Z,1.00
2023-04-01T07:30:22.799Z,1.08
2023-04-01T07:33:28.468Z,0.95
2023-04-01T07:36:49.679Z,1.00
2023-04-01T07:40:21.849Z,1.00
2023-04-01T07:43:53.760Z,0.75
2023-04-01T07:47:18.412Z,1.30
2023-04-01T07:50:28.646Z,0.75
2023-04-01T07:53:58.231Z,0.80
2023-04-01T07:57:24.095Z,0.95
2023-04-01T08:00:51.053Z,0.80
2023-04-01T08:04:24.275Z,0.93
2023-04-01T08:07:43.252Z,0.57
2023-04-01T08:11:03.855Z,0.95
2023-04-01T08:14:57.019Z,0.90
2023-04-01T08:18:30.762Z,0.85
2023-04-01T08:21:52.206Z,0.90
2023-04-01T08:25:00.824Z,0.90
2023-04-01T08:28:24.590Z,1.05
2023-04-01T08:31:54.698Z,1.23
2023-04-01T08:35:16.429Z,0.90
2023-04-01T08:38:38.940Z,0.82
2023-04-01T08:41:57.495Z,0.98
2023-04-01T08:45:14.271Z,1.48
2023-04-01T08:48:31.261Z,0.70
2023-04-01T08:51:56.925Z,1.00
2023-04-01T08:55:02.397Z,0.57
2023-04-01T08:58:08.792Z,0.90
2023-04-01T09:01:14.829Z,0.85
2023-04-01T09:05:11.586Z,0.90
2023-04-01T09:08:20.264Z,1.05
2023-04-01T09:11:53.089Z,0.70
2023-04-01T09:15:32.663Z,1.00
2023-04-01T09:19:28.052Z,1.52
2023-04-01T09:23:07.789Z,0.77
2023-04-01T09:26:29.333Z,1.00
2023-04-01T09:30:01.926Z,1.80
2023-04-01T09:33:44.160Z,0.75
2023-04-01T09:36:52.000Z,1.08
2023-04-01T09:40:27.340Z,1.08
2023-04-01T09:43:45.988Z,1.02
2023-04-01T09:47:28.945Z,1.45
2023-04-01T09:50:45.241Z,1.12
2023-04-01T09:53:54.643Z,1.12
2023-04-01T09:57:11.352Z,0.88
2023-04-01T10:00:20.543Z,1.12
2023-04-01T10:04:01.453Z,1.40
2023-04-01T10:07:30.014Z,1.35
2023-04-01T10:10:32.412Z,1.58
2023-04-01T10:13:47.040Z,1.30
2023-04-01T10:17:26.933Z,1.50
2023-04-01T10:20:54.439Z,1.33
2023-04-01T10:24:13.337Z,1.48
2023-04-01T10:27:37.494Z,1.33
2023-04-01T10:31:11.252Z,1.30
2023-04-01T10:34:56.117Z,1.25
2023-04-01T10:38:46.844Z,1.80
2023-04-01T10:42:30.817Z,1.73
2023-04-01T10:45:47.802Z,2.10
2023-04-01T10:49:06.407Z,1.50
2023-04-01T10:52:43.850Z,2.00
2023-04-01T10:56:10.337Z,1.55
2023-04-01T10:59:21.946Z,1.40
2023-04-01T11:02:49.853Z,1.30
2023-04-01T11:06:25.398Z,1.35
2023-04-01T11:10:05.592Z,0.90
2023-04-01T11:13:25.628Z,0.98
2023-04-01T11:16:56.016Z,1.00
2023-04-01T11:20:20.112Z,1.02
2023-04-01T11:23:55.061Z,0.88
2023-04-01T11:27:16.889Z,0.98
2023-04-01T11:31:14.107Z,1.95
2023-04-01T11:34:35.226Z,1.30
2023-04-01T11:37:50.216Z,0.95
2023-04-01T11:41:03.259Z,0.85
2023-04-01T11:44:19.022Z,2.03
2023-04-01T11:47:36.739Z,1.10
2023-04-01T11:50:47.807Z,0.80
2023-04-01T11:54:03.291Z,0.80
2023-04-01T11:57:14.030Z,0.70
2023-04-01T12:00:41.551Z,0.75
2023-04-01T12:04:12.155Z,1.20
2023-04-01T12:07:26.188Z,0.80
2023-04-01T12:11:09.473Z,0.62
2023-04-01T12:14:32.480Z,1.00
2023-04-01T12:17:50.064Z,0.80
2023-04-01T12:21:12.223Z,0.90
2023-04-01T12:24:37.528Z,0.95
2023-04-01T12:28:07.973Z,0.90
2023-04-01T12:31:47.343Z,1.12
2023-04-01T12:35:07.514Z,1.37
2023-04-01T12:38:29.480Z,1.20
2023-04-01T12:42:13.432Z,1.25
2023-04-01T12:45:33.038Z,0.68
2023-04-01T12:49:06.478Z,1.60
2023-04-01T12:52:36.499Z,1.00
2023-04-01T12:55:44.177Z,0.90
2023-04-01T12:59:08.840Z,1.75
2023-04-01T13:05:29.447Z,1.37
2023-04-01T13:08:56.489Z,1.17
2023-04-01T13:12:24.055Z,1.30
2023-04-01T13:15:34.960Z,1.25
2023-04-01T13:18:40.648Z,1.12
2023-04-01T13:21:59.706Z,1.00
2023-04-01T13:25:28.060Z,1.00
2023-04-01T13:28:58.384Z,1.10
2023-04-01T13:32:16.263Z,1.42
2023-04-01T13:35:25.978Z,1.17
2023-04-01T13:38:47.034Z,0.68
2023-04-01T13:42:07.378Z,1.02
2023-04-01T13:45:28.072Z,1.35
2023-04-01T13:49:04.356Z,0.77
2023-04-01T13:52:31.004Z,1.50
2023-04-01T13:55:36.384Z,0.82
2023-04-01T13:58:47.042Z,0.80
2023-04-01T14:02:06.364Z,0.70
2023-04-01T14:05:43.176Z,0.88
2023-04-01T14:09:00.892Z,1.02
2023-04-01T14:12:21.826Z,2.17
2023-04-01T14:15:39.757Z,0.80
2023-04-01T14:19:09.060Z,0.70
2023-04-01T14:22:37.617Z,0.90
2023-04-01T14:25:46.363Z,0.75
2023-04-01T14:29:37.388Z,0.57
2023-04-01T14:33:17.755Z,0.70
2023-04-01T14:36:22.657Z,1.05
2023-04-01T14:39:43.959Z,0.68
2023-04-01T14:43:07.737Z,0.77
2023-04-01T14:49:52.669Z,0.70
2023-04-01T14:53:01.075Z,0.93
2023-04-01T14:56:05.692Z,0.60
2023-04-01T14:59:11.611Z,0.90
2023-04-01T15:02:42.693Z,1.15
2023-04-01T15:05:56.455Z,1.60
2023-04-01T15:09:32.821Z,1.08
2023-04-01T15:13:01.274Z,1.75
2023-04-01T15:16:09.205Z,1.50
2023-04-01T15:19:30.845Z,1.95
2023-04-01T15:22:50.863Z,1.50
2023-04-01T15:26:31.421Z,2.45
2023-04-01T15:30:24.811Z,1.42
2023-04-01T15:33:56.420Z,1.92
2023-04-01T15:37:04.586Z,1.30
2023-04-01T15:40:24.051Z,1.08
2023-04-01T15:43:55.791Z,1.02
2023-04-01T15:46:59.122Z,0.93
2023-04-01T15:50:19.806Z,1.20
2023-04-01T15:53:31.697Z,0.93
2023-04-01T15:56:58.944Z,1.27
2023-04-01T16:00:27.383Z,1.02
2023-04-01T16:03:44.480Z,1.10
2023-04-01T16:07:03.532Z,0.80
2023-04-01T16:10:36.799Z,0.55
2023-04-01T16:14:05.019Z,1.00
2023-04-01T16:17:52.557Z,0.82
2023-04-01T16:21:21.929Z,0.50
2023-04-01T16:24:24.436Z,0.80
2023-04-01T16:27:37.414Z,0.60
2023-04-01T16:30:47.954Z,1.33
2023-04-01T16:33:52.928Z,0.73
2023-04-01T16:37:20.731Z,0.68
2023-04-01T16:40:46.020Z,0.80
2023-04-01T16:44:01.200Z,0.52
2023-04-01T16:47:16.779Z,0.70
2023-04-01T16:50:19.256Z,0.75
2023-04-01T16:53:54.060Z,0.40
2023-04-01T16:57:05.610Z,0.65
2023-04-01T17:00:21.158Z,0.60
2023-04-01T17:03:33.074Z,0.55
2023-04-01T17:06:54.701Z,0.82
2023-04-01T17:10:15.386Z,0.57
2023-04-01T17:13:36.162Z,0.90
2023-04-01T17:17:06.817Z,0.75
2023-04-01T17:20:37.725Z,0.80
2023-04-01T17:24:01.573Z,1.17
2023-04-01T17:27:49.623Z,1.10
2023-04-01T17:31:01.569Z,1.08
2023-04-01T17:34:22.500Z,0.88
2023-04-01T17:37:33.017Z,0.70
2023-04-01T17:41:16.535Z,1.33
2023-04-01T17:44:50.321Z,1.30
2023-04-01T17:48:23.776Z,0.70
2023-04-01T17:51:41.811Z,1.55
2023-04-01T17:54:52.256Z,1.35
2023-04-01T17:58:18.964Z,1.40
2023-04-01T18:01:41.845Z,1.48
2023-04-01T18:04:56.595Z,1.80
2023-04-01T18:08:40.333Z,1.73
2023-04-01T18:12:28.193Z,1.60
2023-04-01T18:16:13.845Z,1.75
2023-04-01T18:19:28.591Z,1.08
2023-04-01T18:22:39.451Z,1.27
2023-04-01T18:25:49.040Z,1.30
2023-04-01T18:28:59.580Z,1.90
2023-04-01T18:32:12.077Z,1.10
2023-04-01T18:35:29.751Z,1.40
2023-04-01T18:38:37.454Z,1.85
2023-04-01T18:42:00.953Z,1.73
2023-04-01T18:45:35.547Z,1.60
2023-04-01T18:52:17.310Z,1.85
2023-04-01T18:55:23.908Z,1.85
2023-04-01T18:58:51.561Z,1.83
2023-04-01T19:02:14.908Z,1.95
2023-04-01T19:05:24.226Z,1.42
2023-04-01T19:08:37.368Z,2.20
2023-04-01T19:11:57.117Z,1.40
2023-04-01T19:15:21.343Z,1.73
2023-04-01T19:18:36.662Z,1.40
2023-04-01T19:21:56.462Z,1.23
2023-04-01T19:25:18.063Z,1.52
2023-04-01T19:28:54.438Z,1.30
2023-04-01T19:32:16.042Z,1.75
2023-04-01T19:35:30.254Z,2.33
2023-04-01T19:38:40.274Z,1.33
2023-04-01T19:42:08.370Z,1.52
2023-04-01T19:45:36.285Z,2.25
2023-04-01T19:48:57.297Z,1.40
2023-04-01T19:52:30.593Z,1.83
2023-04-01T19:55:51.407Z,3.28
2023-04-01T19:59:14.432Z,3.08
2023-04-01T20:02:52.239Z,3.72
2023-04-01T20:06:38.473Z,3.30
2023-04-01T20:09:59.581Z,3.72
2023-04-01T20:13:11.424Z,4.00
2023-04-01T20:16:16.368Z,4.05
2023-04-01T20:19:28.907Z,4.10
2023-04-01T20:23:03.103Z,4.12
2023-04-01T20:26:11.386Z,4.22
2023-04-01T20:29:22.797Z,5.03
2023-04-01T20:33:10.672Z,4.28
2023-04-01T20:36:35.717Z,5.22
2023-04-01T20:40:00.124Z,4.18
2023-04-01T20:46:31.011Z,4.05
2023-04-01T20:49:46.980Z,4.47
2023-04-01T20:53:12.632Z,5.45
2023-04-01T20:56:17.750Z,4.60
2023-04-01T20:59:26.929Z,4.90
2023-04-01T21:03:00.510Z,4.97
2023-04-01T21:06:28.898Z,5.65
2023-04-01T21:09:42.953Z,4.90
2023-04-01T21:13:08.454Z,5.22
2023-04-01T21:16:50.456Z,6.25
2023-04-01T21:20:10.965Z,5.62
2023-04-01T21:23:30.242Z,6.07
2023-04-01T21:26:40.266Z,5.12
2023-04-01T21:30:20.040Z,5.28
2023-04-01T21:33:37.300Z,5.28
2023-04-01T21:37:01.594Z,5.12
2023-04-01T21:40:25.520Z,4.45
2023-04-01T21:43:47.909Z,4.65
2023-04-01T21:47:21.590Z,3.47
2023-04-01T21:50:23.717Z,4.10
2023-04-01T21:53:56.557Z,4.12
2023-04-01T21:57:26.745Z,2.55
2023-04-01T22:00:32.400Z,3.30
2023-04-01T22:03:59.679Z,3.60
2023-04-01T22:07:04.949Z,3.45
2023-04-01T22:10:19.444Z,2.50
2023-04-01T22:13:31.956Z,2.67
2023-04-01T22:16:49.512Z,2.60
2023-04-01T22:20:06.453Z,2.87
2023-04-01T22:23:11.861Z,2.70
2023-04-01T22:26:39.510Z,2.95
2023-04-01T22:30:04.065Z,2.87
2023-04-01T22:33:21.489Z,3.00
2023-04-01T22:36:56.244Z,2.95
2023-04-01T22:39:58.325Z,2.47
2023-04-01T22:43:07.493Z,2.62
2023-04-01T22:46:38.155Z,2.60
2023-04-01T22:49:47.786Z,1.85
2023-04-01T22:52:59.869Z,2.17
2023-04-01T22:56:08.428Z,2.25
2023-04-01T22:59:25.131Z,1.52
2023-04-01T23:02:36.122Z,1.05
2023-04-01T23:05:47.069Z,1.33
2023-04-01T23:08:57.735Z,0.80
2023-04-01T23:12:05.626Z,0.60
2023-04-01T23:15:15.389Z,1.00
2023-04-01T23:18:36.401Z,0.75
2023-04-01T23:21:49.409Z,0.73
2023-04-01T23:24:58.812Z,0.80
2023-04-01T23:28:16.858Z,0.73
2023-04-01T23:31:38.379Z,0.80
2023-04-01T23:34:46.770Z,0.57
2023-04-01T23:37:48.943Z,0.75
2023-04-01T23:40:54.622Z,0.70
2023-04-01T23:44:02.532Z,0.75
2023-04-01T23:47:06.932Z,0.80
2023-04-01T23:50:19.604Z,1.00
2023-04-01T23:53:26.195Z,1.43
2023-04-01T23:56:49.423Z,1.25
